Kailua Kona, HI

11:14 PM HST on May 22, 2015 (GMT -1000)
Pualani Estates | | Change Station
CLOSE
Current Station
Personal Weather Station
Location: Kailua-Kona, HI
Elevation: 420 ft
Nearby Weather Stations

Elev 420 ft 19.62 °N, 155.97 °W | Updated 27 seconds ago

Partly Cloudy
Partly Cloudy
72.7 °F
Feels Like 71 °F
N
0.0
Wind Variable Wind from South
Gusts 0.0 mph

Today
High -- | Low -- °F
--% Chance of Precip.
Yesterday
High -- | Low -- °F
Precip. -- in
5:46 AM 6:55 PM
Waxing Crescent, 28% visible
Pressure 30.01 in
Visibility 10.0 miles
Clouds Few 1900 ft
Heat Index 71 °F
Dew Point 69 °F
Humidity 87%
Rainfall in
Snow Depth Not available.
UV 0.0 out of 12
Pollen Not available.
Air Quality Not available.
Flu Activity Local Activity
METAR PHKO 230853Z AUTO 32005KT 10SM FEW019 25/21 A3001 RMK AO2 SLP162 T02500206 51007 TSNO

More Conditions Fewer Conditions

Pressure 30.01 in
Visibility 10.0 miles
Clouds Few 1900 ft
Heat Index 71 °F
Dew Point 69 °F
Humidity 87%
Rainfall in
Snow Depth Not available.
UV 0.0 out of 12
Pollen Not available.
Air Quality Not available.
Flu Activity Local Activity
METAR PHKO 230853Z AUTO 32005KT 10SM FEW019 25/21 A3001 RMK AO2 SLP162 T02500206 51007 TSNO

More Conditions Fewer Conditions

10-Day Weather Forecast

Almanac

Astronomy

May. 22, 2015 Rise Set
Actual Time
Civil Twilight
Nautical Twilight
Astronomical Twilight
Moon
Length of Visible Light
Length of Day
Tomorrow will be .
, % of the Moon is Illuminated

Today's Extremes

State Highs State Lows

Community

WunderPhotos

Upload Photos

1,823,404 photos uploaded!

WunderBlogs® & News

Nearby

Air Quality

  Air Quality AQ Index Pollutant
Not available.

Snow Depth

Station Depth Elevation

Earthquake Activity

City Distance Mag. Time & Date
Minimum magnitude displayed is 2.5.

Coastal Water Temperatures

Place Temperature

Stations

Nearby Weather Stations

Station Location Temp. Windchill Dew Point Humidity Wind Precip. Elev Updated Type